Saint-Denis/Gillot, Reunion
Current Conditions -  °F | °C
As of 6:00 PM on Monday 24 Nov 2014 (Local Time) from FMEE Reporting Station
Broken Clouds Broken Clouds  
Wind Chill: 81°   Ceiling: 6200
Heat Index: 85°   Visibility: 6mi
Dew Point: 72°   Wind: 14mph
Humidity: 74%   Direction: 110°ESE
Pressure: 29.97"   Gusts: NA
Location:  20.89°S, 55.51°E
Report Text: FMEE 241400Z 11012KT 9999 FEW025 BKN062 27/22 Q1015 NOSIG
Loading
Personal Weather Stations






























Interactive Weather Map New forecast layout! Learn more

10-Day Weather Forecast

Advertisements
Track Severe Weather on mobile